createdAt,value
2018-09-19T00:01:44.007Z,4.00
2018-09-19T00:04:15.275Z,4.30
2018-09-19T00:06:46.946Z,4.65
2018-09-19T00:09:15.757Z,4.70
2018-09-19T00:11:45.779Z,4.62
2018-09-19T00:14:16.419Z,4.20
2018-09-19T00:16:46.980Z,4.45
2018-09-19T00:19:18.463Z,4.53
2018-09-19T00:21:47.096Z,4.20
2018-09-19T00:24:17.272Z,4.00
2018-09-19T00:26:45.899Z,4.80
2018-09-19T00:29:16.295Z,4.30
2018-09-19T00:31:44.982Z,4.87
2018-09-19T00:34:15.605Z,4.50
2018-09-19T00:36:45.924Z,4.57
2018-09-19T00:39:17.578Z,4.72
2018-09-19T00:41:47.976Z,4.90
2018-09-19T00:44:18.080Z,4.57
2018-09-19T00:46:46.705Z,5.10
2018-09-19T00:49:18.509Z,5.07
2018-09-19T00:51:50.077Z,5.00
2018-09-19T00:54:18.801Z,4.90
2018-09-19T00:56:49.665Z,4.50
2018-09-19T00:59:20.677Z,5.10
2018-09-19T01:01:52.290Z,5.35
2018-09-19T01:04:22.485Z,5.03
2018-09-19T01:06:51.069Z,5.32
2018-09-19T01:09:21.083Z,5.32
2018-09-19T01:11:52.683Z,4.70
2018-09-19T01:14:22.879Z,5.18
2018-09-19T01:16:52.940Z,5.07
2018-09-19T01:19:23.075Z,4.62
2018-09-19T01:21:53.626Z,5.53
2018-09-19T01:24:25.535Z,5.65
2018-09-19T01:26:53.768Z,5.10
2018-09-19T01:29:23.863Z,5.05
2018-09-19T01:31:52.465Z,5.10
2018-09-19T01:34:22.503Z,4.87
2018-09-19T01:36:54.305Z,4.75
2018-09-19T01:39:24.664Z,4.93
2018-09-19T01:41:54.848Z,5.35
2018-09-19T01:44:24.940Z,5.32
2018-09-19T01:46:53.839Z,5.25
2018-09-19T01:49:25.472Z,5.35
2018-09-19T01:51:58.293Z,5.32
2018-09-19T01:54:28.431Z,4.97
2018-09-19T01:56:58.747Z,4.80
2018-09-19T01:59:31.257Z,5.55
2018-09-19T02:02:03.123Z,5.40
2018-09-19T02:04:33.204Z,5.60
2018-09-19T02:07:03.375Z,5.05
2018-09-19T02:09:33.495Z,5.65
2018-09-19T02:12:05.212Z,5.45
2018-09-19T02:14:36.965Z,5.68
2018-09-19T02:17:05.631Z,5.45
2018-09-19T02:19:35.922Z,6.03
2018-09-19T02:22:07.677Z,5.93
2018-09-19T02:24:37.785Z,6.18
2018-09-19T02:27:06.393Z,5.35
2018-09-19T02:29:39.021Z,5.72
2018-09-19T02:32:07.631Z,6.22
2018-09-19T02:34:39.493Z,5.95
2018-09-19T02:37:09.809Z,6.37
2018-09-19T02:39:38.518Z,6.55
2018-09-19T02:42:08.944Z,5.70
2018-09-19T02:44:38.987Z,5.80
2018-09-19T02:47:09.067Z,5.80
2018-09-19T02:49:37.869Z,7.12
2018-09-19T02:52:08.120Z,5.90
2018-09-19T02:54:36.766Z,5.55
2018-09-19T02:57:08.359Z,6.22
2018-09-19T02:59:39.444Z,5.80
2018-09-19T03:02:08.964Z,5.87
2018-09-19T03:04:39.230Z,6.45
2018-09-19T03:07:08.200Z,6.03
2018-09-19T03:12:11.783Z,5.97
2018-09-19T03:14:42.120Z,5.22
2018-09-19T03:17:12.314Z,5.95
2018-09-19T03:19:42.408Z,6.22
2018-09-19T03:22:11.052Z,6.45
2018-09-19T03:24:39.602Z,7.50
2018-09-19T03:27:09.749Z,6.78
2018-09-19T03:29:38.379Z,6.60
2018-09-19T03:32:08.866Z,6.75
2018-09-19T03:34:38.965Z,7.05
2018-09-19T03:37:10.641Z,7.40
2018-09-19T03:39:42.301Z,7.15
2018-09-19T03:42:12.402Z,7.37
2018-09-19T03:44:42.537Z,8.52
2018-09-19T03:47:14.038Z,8.55
2018-09-19T03:49:44.129Z,10.00
2018-09-19T03:52:14.534Z,8.20
2018-09-19T03:54:43.113Z,8.48
2018-09-19T03:57:13.439Z,8.82
2018-09-19T03:59:42.037Z,8.88
2018-09-19T04:02:12.358Z,7.68
2018-09-19T04:04:44.011Z,8.02
2018-09-19T04:07:14.124Z,8.02
2018-09-19T04:09:44.236Z,7.62
2018-09-19T04:12:14.306Z,7.28
2018-09-19T04:14:46.165Z,8.10
2018-09-19T04:17:14.773Z,8.10
2018-09-19T04:19:44.885Z,7.55
2018-09-19T04:22:15.098Z,8.18
2018-09-19T04:24:45.161Z,7.85
2018-09-19T04:27:15.219Z,8.02
2018-09-19T04:29:45.939Z,8.80
2018-09-19T04:32:16.031Z,8.95
2018-09-19T04:34:46.164Z,7.82
2018-09-19T04:37:17.912Z,8.38
2018-09-19T04:39:46.465Z,8.20
2018-09-19T04:42:16.527Z,8.75
2018-09-19T04:44:45.704Z,8.68
2018-09-19T04:47:14.393Z,9.43
2018-09-19T04:49:45.930Z,9.05
2018-09-19T04:52:16.085Z,8.55
2018-09-19T04:54:44.898Z,10.07
2018-09-19T04:57:15.027Z,9.55
2018-09-19T04:59:46.742Z,8.60
2018-09-19T05:02:18.501Z,9.10
2018-09-19T05:04:48.560Z,8.90
2018-09-19T05:07:19.241Z,8.95
2018-09-19T05:09:49.495Z,8.82
2018-09-19T05:12:21.203Z,9.05
2018-09-19T05:14:51.408Z,9.70
2018-09-19T05:17:22.067Z,9.73
2018-09-19T05:19:52.329Z,9.55
2018-09-19T05:22:23.218Z,9.85
2018-09-19T05:24:51.903Z,9.18
2018-09-19T05:27:22.000Z,10.23
2018-09-19T05:29:53.723Z,9.38
2018-09-19T05:32:25.269Z,10.05
2018-09-19T05:34:55.351Z,9.18
2018-09-19T05:37:25.617Z,10.32
2018-09-19T05:39:55.821Z,10.13
2018-09-19T05:42:26.140Z,9.85
2018-09-19T05:44:55.462Z,10.07
2018-09-19T05:47:23.228Z,10.90
2018-09-19T05:49:54.714Z,9.70
2018-09-19T05:52:28.531Z,8.98
2018-09-19T05:55:01.092Z,10.10
2018-09-19T05:57:31.287Z,9.05
2018-09-19T06:00:01.422Z,11.05
2018-09-19T06:02:31.638Z,10.32
2018-09-19T06:05:03.438Z,10.43
2018-09-19T06:07:33.475Z,10.93
2018-09-19T06:10:02.169Z,10.38
2018-09-19T06:12:30.864Z,9.95
2018-09-19T06:15:02.368Z,10.35
2018-09-19T06:17:31.162Z,11.32
2018-09-19T06:19:59.875Z,11.75
2018-09-19T06:22:30.014Z,10.30
2018-09-19T06:24:58.799Z,10.55
2018-09-19T06:27:29.180Z,10.13
2018-09-19T06:29:58.334Z,9.88
2018-09-19T06:32:27.065Z,10.10
2018-09-19T06:34:55.789Z,10.13
2018-09-19T06:37:26.020Z,10.45
2018-09-19T06:39:56.123Z,10.88
2018-09-19T06:42:24.726Z,10.25
2018-09-19T06:44:53.309Z,9.50
2018-09-19T06:47:23.618Z,11.00
2018-09-19T06:49:53.779Z,10.52
2018-09-19T06:52:22.643Z,11.07
2018-09-19T06:54:51.247Z,10.63
2018-09-19T06:57:22.034Z,9.80
2018-09-19T06:59:50.614Z,10.43
2018-09-19T07:02:19.189Z,9.82
2018-09-19T07:04:49.371Z,10.07
2018-09-19T07:07:19.479Z,10.30
2018-09-19T07:09:50.070Z,10.55
2018-09-19T07:12:20.197Z,9.65
2018-09-19T07:14:51.416Z,10.40
2018-09-19T07:17:23.088Z,9.50
2018-09-19T07:19:51.764Z,10.23
2018-09-19T07:22:20.476Z,10.23
2018-09-19T07:24:50.506Z,10.23
2018-09-19T07:27:24.081Z,9.27
2018-09-19T07:29:55.713Z,8.82
2018-09-19T07:32:24.408Z,8.65
2018-09-19T07:34:53.012Z,7.85
2018-09-19T07:37:23.416Z,8.80
2018-09-19T07:39:53.501Z,8.77
2018-09-19T07:42:21.996Z,8.77
2018-09-19T07:44:53.813Z,8.70
2018-09-19T07:47:25.369Z,8.68
2018-09-19T07:49:53.957Z,8.07
2018-09-19T07:52:27.853Z,7.20
2018-09-19T07:54:56.452Z,7.93
2018-09-19T07:57:25.675Z,7.70
2018-09-19T07:59:54.283Z,7.45
2018-09-19T08:02:24.503Z,7.57
2018-09-19T08:04:56.745Z,8.18
2018-09-19T08:07:28.310Z,7.50
2018-09-19T08:09:59.708Z,7.95
2018-09-19T08:12:28.274Z,8.52
2018-09-19T08:14:58.477Z,7.12
2018-09-19T08:17:28.643Z,8.15
2018-09-19T08:20:00.355Z,7.28
2018-09-19T08:22:30.874Z,8.20
2018-09-19T08:25:01.602Z,7.95
2018-09-19T08:27:31.835Z,8.30
2018-09-19T08:30:04.254Z,8.65
2018-09-19T08:32:36.085Z,8.00
2018-09-19T08:35:07.672Z,8.30
2018-09-19T08:37:39.527Z,7.70
2018-09-19T08:40:11.390Z,7.28
2018-09-19T08:42:39.997Z,7.68
2018-09-19T08:45:10.195Z,7.07
2018-09-19T08:47:41.830Z,7.50
2018-09-19T08:50:12.155Z,7.57
2018-09-19T08:52:40.918Z,6.78
2018-09-19T08:55:09.568Z,7.10
2018-09-19T08:57:41.217Z,6.72
2018-09-19T09:00:13.935Z,7.78
2018-09-19T09:02:44.285Z,6.45
2018-09-19T09:05:14.442Z,7.18
2018-09-19T09:07:43.190Z,6.12
2018-09-19T09:10:13.170Z,5.50
2018-09-19T09:12:43.602Z,6.87
2018-09-19T09:15:15.179Z,7.15
2018-09-19T09:17:43.963Z,6.70
2018-09-19T09:20:13.994Z,7.20
2018-09-19T09:22:45.955Z,6.82
2018-09-19T09:25:17.687Z,6.12
2018-09-19T09:27:46.505Z,6.05
2018-09-19T09:30:16.772Z,5.45
2018-09-19T09:32:47.024Z,6.75
2018-09-19T09:35:18.947Z,5.93
2018-09-19T09:37:51.063Z,4.87
2018-09-19T09:40:22.749Z,5.15
2018-09-19T09:42:54.566Z,5.47
2018-09-19T09:45:26.254Z,6.00
2018-09-19T09:47:54.960Z,6.50
2018-09-19T09:50:25.739Z,6.07
2018-09-19T09:52:57.535Z,6.47
2018-09-19T09:55:29.192Z,5.40
2018-09-19T09:57:59.333Z,5.57
2018-09-19T10:00:44.347Z,5.68
2018-09-19T10:03:14.391Z,5.25
2018-09-19T10:05:44.460Z,5.72
2018-09-19T10:08:16.121Z,6.20
2018-09-19T10:10:44.850Z,6.90
2018-09-19T10:13:13.435Z,6.18
2018-09-19T10:15:42.014Z,6.22
2018-09-19T10:18:13.760Z,5.20
2018-09-19T10:20:44.040Z,5.80
2018-09-19T10:23:15.737Z,6.35
2018-09-19T10:25:45.967Z,5.50
2018-09-19T10:28:15.117Z,5.00
2018-09-19T10:30:47.004Z,5.37
2018-09-19T10:33:17.173Z,5.57
2018-09-19T10:35:47.875Z,5.37
2018-09-19T10:38:19.215Z,4.25
2018-09-19T10:40:49.439Z,4.32
2018-09-19T10:43:19.485Z,4.78
2018-09-19T10:45:47.292Z,4.90
2018-09-19T10:48:17.415Z,4.45
2018-09-19T10:50:48.219Z,4.32
2018-09-19T10:53:16.777Z,4.15
2018-09-19T10:55:45.379Z,4.73
2018-09-19T10:58:15.701Z,4.53
2018-09-19T11:00:47.465Z,4.57
2018-09-19T11:03:17.618Z,3.72
2018-09-19T11:05:47.774Z,4.93
2018-09-19T11:08:17.195Z,4.60
2018-09-19T11:10:47.487Z,4.20
2018-09-19T11:13:17.635Z,5.05
2018-09-19T11:15:47.979Z,4.87
2018-09-19T11:18:19.701Z,5.43
2018-09-19T11:20:48.376Z,5.03
2018-09-19T11:23:17.508Z,4.62
2018-09-19T11:25:47.807Z,5.00
2018-09-19T11:28:16.402Z,5.20
2018-09-19T11:30:46.705Z,5.47
2018-09-19T11:33:16.741Z,5.45
2018-09-19T11:35:48.296Z,5.78
2018-09-19T11:38:18.488Z,5.62
2018-09-19T11:40:48.743Z,6.03
2018-09-19T11:43:17.339Z,6.25
2018-09-19T11:45:47.641Z,5.87
2018-09-19T11:48:16.416Z,5.18
2018-09-19T11:50:46.739Z,5.65
2018-09-19T11:53:30.816Z,6.05
2018-09-19T11:56:01.773Z,6.00
2018-09-19T11:58:32.659Z,6.45
2018-09-19T12:01:02.883Z,5.65
2018-09-19T12:03:33.111Z,5.62
2018-09-19T12:06:01.698Z,5.07
2018-09-19T12:08:31.930Z,5.30
2018-09-19T12:11:00.529Z,6.10
2018-09-19T12:13:30.750Z,5.62
2018-09-19T12:16:01.966Z,5.72
2018-09-19T12:18:32.255Z,5.65
2018-09-19T12:21:04.080Z,5.82
2018-09-19T12:23:34.180Z,5.93
2018-09-19T12:26:05.719Z,6.25
2018-09-19T12:28:37.198Z,4.80
2018-09-19T12:31:05.817Z,5.68
2018-09-19T12:33:35.891Z,4.80
2018-09-19T12:36:06.368Z,5.18
2018-09-19T12:38:37.183Z,5.40
2018-09-19T12:41:07.273Z,4.90
2018-09-19T12:43:37.903Z,5.22
2018-09-19T12:46:06.691Z,5.45
2018-09-19T12:48:37.302Z,4.43
2018-09-19T12:51:08.785Z,5.07
2018-09-19T12:53:39.187Z,3.55
2018-09-19T12:56:09.219Z,4.72
2018-09-19T12:58:39.627Z,4.75
2018-09-19T13:01:09.957Z,4.60
2018-09-19T13:03:38.548Z,4.03
2018-09-19T13:06:08.776Z,4.43
2018-09-19T13:08:37.520Z,4.95
2018-09-19T13:11:07.530Z,5.80
2018-09-19T13:13:36.822Z,4.82
2018-09-19T13:16:08.073Z,4.32
2018-09-19T13:18:36.585Z,5.45
2018-09-19T13:21:07.207Z,5.12
2018-09-19T13:23:37.569Z,5.55
2018-09-19T13:26:06.285Z,4.05
2018-09-19T13:28:36.468Z,4.55
2018-09-19T13:31:06.828Z,4.50
2018-09-19T13:33:37.362Z,4.12
2018-09-19T13:36:07.530Z,5.05
2018-09-19T13:38:37.804Z,4.72
2018-09-19T13:41:07.833Z,3.95
2018-09-19T13:43:38.565Z,4.57
2018-09-19T13:46:08.724Z,3.80
2018-09-19T13:48:39.203Z,4.60
2018-09-19T13:51:26.984Z,4.25
2018-09-19T13:53:57.111Z,4.15
2018-09-19T13:56:27.153Z,4.57
2018-09-19T13:58:57.290Z,4.22
2018-09-19T14:01:28.880Z,4.35
2018-09-19T14:03:57.517Z,4.00
2018-09-19T14:06:27.790Z,3.75
2018-09-19T14:08:57.833Z,3.92
2018-09-19T14:11:28.164Z,4.22
2018-09-19T14:13:56.773Z,4.18
2018-09-19T14:16:28.283Z,4.20
2018-09-19T14:18:56.896Z,4.30
2018-09-19T14:21:27.648Z,3.53
2018-09-19T14:23:57.938Z,3.97
2018-09-19T14:26:29.582Z,4.20
2018-09-19T14:28:58.496Z,4.40
2018-09-19T14:31:26.269Z,4.43
2018-09-19T14:33:57.919Z,3.95
2018-09-19T14:36:28.305Z,4.47
2018-09-19T14:38:58.334Z,3.72
2018-09-19T14:41:28.439Z,3.87
2018-09-19T14:44:00.337Z,4.25
2018-09-19T14:46:30.553Z,4.57
2018-09-19T14:49:01.371Z,4.20
2018-09-19T14:51:32.083Z,4.25
2018-09-19T14:54:02.359Z,4.35
2018-09-19T14:56:32.436Z,4.65
2018-09-19T14:59:01.223Z,4.78
2018-09-19T15:01:31.559Z,4.55
2018-09-19T15:04:01.829Z,4.00
2018-09-19T15:06:30.599Z,4.25
2018-09-19T15:08:59.169Z,4.30
2018-09-19T15:11:27.762Z,4.47
2018-09-19T15:14:01.686Z,4.15
2018-09-19T15:16:30.157Z,4.07
2018-09-19T15:19:01.725Z,5.05
2018-09-19T15:21:32.438Z,4.45
2018-09-19T15:24:01.033Z,4.43
2018-09-19T15:26:29.600Z,5.15
2018-09-19T15:28:58.175Z,5.10
2018-09-19T15:31:28.895Z,4.53
2018-09-19T15:33:57.394Z,5.18
2018-09-19T15:36:27.680Z,4.18
2018-09-19T15:38:55.408Z,4.03
2018-09-19T15:41:27.212Z,4.40
2018-09-19T15:43:57.444Z,4.68
2018-09-19T15:46:27.625Z,3.80
2018-09-19T15:48:57.819Z,4.50
2018-09-19T15:51:28.268Z,3.87
2018-09-19T15:53:59.406Z,4.30
2018-09-19T15:56:31.114Z,4.62
2018-09-19T15:59:01.228Z,4.62
2018-09-19T16:01:31.448Z,3.80
2018-09-19T16:04:00.069Z,4.18
2018-09-19T16:06:30.702Z,3.83
2018-09-19T16:09:00.919Z,4.40
2018-09-19T16:11:32.510Z,4.35
2018-09-19T16:14:04.181Z,4.10
2018-09-19T16:16:32.925Z,4.28
2018-09-19T16:19:01.472Z,3.80
2018-09-19T16:21:30.057Z,4.03
2018-09-19T16:24:00.101Z,3.80
2018-09-19T16:26:30.145Z,3.25
2018-09-19T16:29:01.837Z,3.95
2018-09-19T16:31:32.018Z,3.30
2018-09-19T16:34:02.337Z,3.65
2018-09-19T16:36:31.110Z,3.35
2018-09-19T16:39:01.321Z,3.90
2018-09-19T16:41:29.925Z,3.65
2018-09-19T16:43:58.559Z,3.33
2018-09-19T16:46:28.679Z,3.30
2018-09-19T16:49:00.383Z,4.03
2018-09-19T16:51:29.631Z,3.70
2018-09-19T16:53:58.140Z,4.05
2018-09-19T16:56:26.713Z,3.42
2018-09-19T16:58:56.975Z,3.90
2018-09-19T17:01:28.594Z,3.95
2018-09-19T17:03:59.047Z,3.60
2018-09-19T17:06:27.730Z,3.72
2018-09-19T17:08:59.504Z,3.58
2018-09-19T17:11:31.135Z,4.03
2018-09-19T17:14:01.457Z,3.67
2018-09-19T17:16:29.469Z,3.65
2018-09-19T17:18:58.216Z,3.65
2018-09-19T17:21:28.248Z,3.83
2018-09-19T17:23:59.895Z,3.67
2018-09-19T17:26:30.017Z,4.07
2018-09-19T17:29:01.625Z,4.03
2018-09-19T17:31:30.268Z,4.62
2018-09-19T17:34:00.287Z,4.30
2018-09-19T17:36:28.894Z,4.62
2018-09-19T17:38:57.638Z,4.10
2018-09-19T17:41:28.056Z,4.55
2018-09-19T17:43:58.281Z,3.92
2018-09-19T17:46:29.967Z,4.12
2018-09-19T17:49:00.328Z,3.67
2018-09-19T17:51:30.425Z,4.00
2018-09-19T17:53:59.132Z,3.70
2018-09-19T17:56:27.788Z,4.12
2018-09-19T17:58:57.959Z,4.32
2018-09-19T18:01:28.167Z,4.03
2018-09-19T18:03:56.792Z,4.03
2018-09-19T18:06:28.442Z,4.12
2018-09-19T18:08:58.646Z,4.37
2018-09-19T18:11:27.764Z,4.07
2018-09-19T18:13:58.388Z,4.15
2018-09-19T18:16:26.945Z,3.95
2018-09-19T18:18:57.071Z,4.10
2018-09-19T18:21:25.654Z,4.25
2018-09-19T18:23:57.288Z,4.35
2018-09-19T18:26:27.413Z,3.75
2018-09-19T18:28:56.074Z,4.03
2018-09-19T18:31:26.168Z,4.60
2018-09-19T18:33:54.804Z,4.72
2018-09-19T18:36:24.077Z,4.15
2018-09-19T18:38:54.371Z,4.12
2018-09-19T18:41:22.939Z,3.95
2018-09-19T18:43:53.169Z,4.05
2018-09-19T18:46:23.285Z,4.57
2018-09-19T18:48:53.342Z,4.62
2018-09-19T18:51:25.116Z,4.22
2018-09-19T18:53:53.705Z,4.93
2018-09-19T18:56:22.325Z,3.95
2018-09-19T18:58:51.537Z,4.57
2018-09-19T19:01:21.614Z,4.37
2018-09-19T19:03:50.318Z,4.03
2018-09-19T19:06:18.929Z,4.22
2018-09-19T19:08:47.514Z,4.32
2018-09-19T19:11:15.972Z,4.25
2018-09-19T19:13:45.273Z,5.25
2018-09-19T19:16:15.380Z,4.22
2018-09-19T19:18:45.570Z,4.75
2018-09-19T19:21:15.654Z,4.65
2018-09-19T19:23:44.494Z,4.72
2018-09-19T19:26:14.600Z,4.70
2018-09-19T19:28:44.873Z,4.90
2018-09-19T19:31:13.625Z,4.47
2018-09-19T19:33:42.751Z,4.72
2018-09-19T19:36:12.862Z,4.55
2018-09-19T19:38:42.967Z,4.05
2018-09-19T19:41:13.131Z,3.95
2018-09-19T19:43:42.313Z,4.80
2018-09-19T19:46:12.564Z,4.72
2018-09-19T19:48:42.604Z,4.43
2018-09-19T19:51:12.962Z,4.45
2018-09-19T19:53:43.198Z,4.70
2018-09-19T19:56:13.392Z,4.43
2018-09-19T19:58:42.894Z,4.43
2018-09-19T20:01:13.220Z,3.78
2018-09-19T20:03:43.356Z,4.12
2018-09-19T20:06:13.785Z,4.60
2018-09-19T20:08:45.374Z,4.45
2018-09-19T20:11:15.468Z,4.30
2018-09-19T20:13:44.256Z,4.50
2018-09-19T20:16:15.902Z,5.62
2018-09-19T20:18:44.570Z,4.95
2018-09-19T20:21:13.181Z,5.07
2018-09-19T20:23:42.700Z,5.47
2018-09-19T20:26:14.797Z,4.55
2018-09-19T20:28:43.941Z,5.10
2018-09-19T20:31:14.153Z,4.47
2018-09-19T20:33:44.252Z,5.43
2018-09-19T20:36:14.263Z,5.82
2018-09-19T20:38:44.385Z,5.95
2018-09-19T20:41:13.104Z,5.07
2018-09-19T20:43:44.684Z,5.72
2018-09-19T20:46:14.795Z,5.53
2018-09-19T20:48:46.334Z,5.12
2018-09-19T20:51:18.000Z,5.03
2018-09-19T20:53:47.936Z,5.80
2018-09-19T20:56:18.069Z,5.85
2018-09-19T20:58:48.211Z,5.00
2018-09-19T21:01:18.421Z,4.97
2018-09-19T21:03:49.939Z,5.18
2018-09-19T21:06:19.980Z,4.87
2018-09-19T21:08:50.058Z,6.32
2018-09-19T21:11:20.089Z,5.55
2018-09-19T21:13:50.333Z,5.87
2018-09-19T21:16:19.037Z,5.57
2018-09-19T21:18:49.381Z,5.85
2018-09-19T21:21:19.547Z,5.35
2018-09-19T21:23:49.614Z,5.25
2018-09-19T21:26:21.185Z,5.35
2018-09-19T21:28:51.499Z,5.47
2018-09-19T21:31:21.695Z,5.15
2018-09-19T21:33:53.571Z,4.87
2018-09-19T21:36:23.735Z,5.25
2018-09-19T21:38:53.807Z,5.07
2018-09-19T21:41:22.452Z,4.90
2018-09-19T21:43:52.541Z,4.95
2018-09-19T21:46:21.576Z,5.53
2018-09-19T21:48:51.726Z,6.12
2018-09-19T21:51:21.909Z,5.10
2018-09-19T21:53:51.995Z,5.90
2018-09-19T21:56:20.675Z,6.25
2018-09-19T21:58:52.729Z,5.80
2018-09-19T22:01:39.352Z,5.72
2018-09-19T22:04:08.071Z,5.03
2018-09-19T22:06:36.715Z,5.78
2018-09-19T22:09:08.605Z,5.00
2018-09-19T22:11:41.253Z,5.20
2018-09-19T22:14:12.412Z,6.55
2018-09-19T22:16:42.630Z,5.82
2018-09-19T22:19:11.395Z,5.20
2018-09-19T22:21:41.538Z,5.45
2018-09-19T22:24:13.377Z,5.82
2018-09-19T22:26:43.546Z,6.03
2018-09-19T22:29:13.795Z,5.22
2018-09-19T22:31:44.340Z,6.37
2018-09-19T22:34:14.511Z,6.20
2018-09-19T22:36:46.390Z,5.47
2018-09-19T22:39:15.542Z,5.93
2018-09-19T22:41:45.807Z,6.20
2018-09-19T22:44:15.877Z,5.80
2018-09-19T22:46:44.364Z,6.53
2018-09-19T22:49:13.080Z,6.35
2018-09-19T22:51:43.145Z,5.70
2018-09-19T22:54:11.204Z,5.37
2018-09-19T22:56:41.596Z,5.90
2018-09-19T22:59:11.776Z,6.22
2018-09-19T23:01:42.000Z,5.50
2018-09-19T23:04:10.677Z,6.15
2018-09-19T23:06:40.778Z,5.70
2018-09-19T23:09:12.595Z,6.18
2018-09-19T23:11:42.648Z,5.90
2018-09-19T23:14:12.889Z,5.53
2018-09-19T23:16:41.538Z,6.20
2018-09-19T23:19:11.614Z,5.22
2018-09-19T23:21:41.755Z,6.43
2018-09-19T23:24:11.814Z,6.60
2018-09-19T23:26:41.241Z,5.60
2018-09-19T23:29:09.507Z,6.35
2018-09-19T23:31:39.655Z,5.22
2018-09-19T23:34:09.926Z,6.45
2018-09-19T23:36:40.104Z,5.78
2018-09-19T23:39:11.949Z,5.95
2018-09-19T23:41:42.112Z,5.80
2018-09-19T23:44:10.344Z,5.90
2018-09-19T23:46:38.988Z,6.03
2018-09-19T23:49:10.366Z,6.18
2018-09-19T23:51:41.944Z,6.37
2018-09-19T23:54:13.435Z,5.82
2018-09-19T23:56:42.676Z,6.65
2018-09-19T23:59:11.490Z,5.95
